sensor_id;sensor_type;location;lat;lon;timestamp;pressure;altitude;pressure_sealevel;temperature;humidity
68580;BME280;55555;52.136;5.424;2022-07-24T00:01:33;101989.31;;;16.61;77.48
68580;BME280;55555;52.136;5.424;2022-07-24T00:04:00;101990.34;;;16.60;77.43
68580;BME280;55555;52.136;5.424;2022-07-24T00:06:30;101983.25;;;16.59;77.16
68580;BME280;55555;52.136;5.424;2022-07-24T00:08:57;101979.94;;;16.57;76.90
68580;BME280;55555;52.136;5.424;2022-07-24T00:11:24;101985.81;;;16.54;77.25
68580;BME280;55555;52.136;5.424;2022-07-24T00:13:51;101985.44;;;16.50;77.40
68580;BME280;55555;52.136;5.424;2022-07-24T00:16:18;101980.22;;;16.49;77.32
68580;BME280;55555;52.136;5.424;2022-07-24T00:18:45;101972.75;;;16.44;77.53
68580;BME280;55555;52.136;5.424;2022-07-24T00:21:12;101984.28;;;16.40;77.76
68580;BME280;55555;52.136;5.424;2022-07-24T00:23:39;101974.78;;;16.31;78.40
68580;BME280;55555;52.136;5.424;2022-07-24T00:26:06;101981.34;;;16.41;77.36
68580;BME280;55555;52.136;5.424;2022-07-24T00:28:33;101974.84;;;16.42;77.19
68580;BME280;55555;52.136;5.424;2022-07-24T00:31:01;101981.03;;;16.31;77.58
68580;BME280;55555;52.136;5.424;2022-07-24T00:33:28;101977.94;;;16.28;77.69
68580;BME280;55555;52.136;5.424;2022-07-24T00:35:55;101971.66;;;16.27;77.48
68580;BME280;55555;52.136;5.424;2022-07-24T00:38:22;101977.94;;;16.28;77.27
68580;BME280;55555;52.136;5.424;2022-07-24T00:40:49;101972.56;;;16.21;77.88
68580;BME280;55555;52.136;5.424;2022-07-24T00:43:16;101978.22;;;16.19;77.75
68580;BME280;55555;52.136;5.424;2022-07-24T00:45:44;101978.22;;;16.19;77.50
68580;BME280;55555;52.136;5.424;2022-07-24T00:48:11;101970.28;;;16.18;77.37
68580;BME280;55555;52.136;5.424;2022-07-24T00:50:38;101971.34;;;16.17;77.33
68580;BME280;55555;52.136;5.424;2022-07-24T00:53:07;101964.94;;;16.11;77.75
68580;BME280;55555;52.136;5.424;2022-07-24T00:55:34;101967.06;;;16.09;77.65
68580;BME280;55555;52.136;5.424;2022-07-24T00:58:01;101965.41;;;16.08;77.52
68580;BME280;55555;52.136;5.424;2022-07-24T01:00:29;101965.69;;;16.00;78.07
68580;BME280;55555;52.136;5.424;2022-07-24T01:02:56;101974.06;;;15.99;77.98
68580;BME280;55555;52.136;5.424;2022-07-24T01:05:24;101971.34;;;15.99;77.99
68580;BME280;55555;52.136;5.424;2022-07-24T01:07:52;101964.63;;;16.01;77.86
68580;BME280;55555;52.136;5.424;2022-07-24T01:10:19;101960.31;;;15.94;78.39
68580;BME280;55555;52.136;5.424;2022-07-24T01:12:46;101966.84;;;15.86;78.57
68580;BME280;55555;52.136;5.424;2022-07-24T01:15:13;101970.78;;;15.90;78.28
68580;BME280;55555;52.136;5.424;2022-07-24T01:17:42;101960.13;;;15.88;78.49
68580;BME280;55555;52.136;5.424;2022-07-24T01:20:10;101962.63;;;15.90;78.24
68580;BME280;55555;52.136;5.424;2022-07-24T01:22:39;101966.25;;;15.84;78.54
68580;BME280;55555;52.136;5.424;2022-07-24T01:25:06;101962.53;;;15.78;78.61
68580;BME280;55555;52.136;5.424;2022-07-24T01:27:34;101961.69;;;15.78;78.54
68580;BME280;55555;52.136;5.424;2022-07-24T01:30:01;101959.59;;;15.80;78.48
68580;BME280;55555;52.136;5.424;2022-07-24T01:32:28;101958.97;;;15.78;78.50
68580;BME280;55555;52.136;5.424;2022-07-24T01:34:55;101955.41;;;15.77;78.45
68580;BME280;55555;52.136;5.424;2022-07-24T01:37:22;101949.00;;;15.72;78.86
68580;BME280;55555;52.136;5.424;2022-07-24T01:39:49;101952.38;;;15.67;79.00
68580;BME280;55555;52.136;5.424;2022-07-24T01:42:16;101950.94;;;15.65;79.01
68580;BME280;55555;52.136;5.424;2022-07-24T01:44:46;101951.22;;;15.57;79.50
68580;BME280;55555;52.136;5.424;2022-07-24T01:47:13;101947.81;;;15.61;79.13
68580;BME280;55555;52.136;5.424;2022-07-24T01:49:40;101949.13;;;15.59;79.31
68580;BME280;55555;52.136;5.424;2022-07-24T01:52:09;101944.94;;;15.56;79.30
68580;BME280;55555;52.136;5.424;2022-07-24T01:54:36;101947.91;;;15.48;79.74
68580;BME280;55555;52.136;5.424;2022-07-24T01:57:03;101948.09;;;15.53;79.31
68580;BME280;55555;52.136;5.424;2022-07-24T01:59:31;101937.00;;;15.54;79.18
68580;BME280;55555;52.136;5.424;2022-07-24T02:02:00;101940.78;;;15.53;79.16
68580;BME280;55555;52.136;5.424;2022-07-24T02:04:27;101947.75;;;15.43;79.87
68580;BME280;55555;52.136;5.424;2022-07-24T02:06:54;101947.19;;;15.34;81.06
68580;BME280;55555;52.136;5.424;2022-07-24T02:09:21;101956.38;;;15.33;81.61
68580;BME280;55555;52.136;5.424;2022-07-24T02:11:48;101957.38;;;15.39;80.51
68580;BME280;55555;52.136;5.424;2022-07-24T02:14:16;101956.56;;;15.38;80.87
68580;BME280;55555;52.136;5.424;2022-07-24T02:16:43;101956.97;;;15.35;80.62
68580;BME280;55555;52.136;5.424;2022-07-24T02:19:10;101949.44;;;15.37;80.77
68580;BME280;55555;52.136;5.424;2022-07-24T02:21:37;101947.63;;;15.31;80.61
68580;BME280;55555;52.136;5.424;2022-07-24T02:24:05;101946.94;;;15.36;80.23
68580;BME280;55555;52.136;5.424;2022-07-24T02:26:32;101943.41;;;15.35;79.81
68580;BME280;55555;52.136;5.424;2022-07-24T02:28:59;101944.47;;;15.34;80.11
68580;BME280;55555;52.136;5.424;2022-07-24T02:31:27;101940.50;;;15.30;80.37
68580;BME280;55555;52.136;5.424;2022-07-24T02:33:54;101936.75;;;15.31;80.28
68580;BME280;55555;52.136;5.424;2022-07-24T02:36:21;101935.91;;;15.31;80.31
68580;BME280;55555;52.136;5.424;2022-07-24T02:38:48;101937.16;;;15.35;79.87
68580;BME280;55555;52.136;5.424;2022-07-24T02:41:15;101927.56;;;15.32;80.16
68580;BME280;55555;52.136;5.424;2022-07-24T02:43:42;101922.34;;;15.31;80.21
68580;BME280;55555;52.136;5.424;2022-07-24T02:46:09;101924.84;;;15.32;79.83
68580;BME280;55555;52.136;5.424;2022-07-24T02:48:36;101930.53;;;15.24;80.33
68580;BME280;55555;52.136;5.424;2022-07-24T02:51:03;101925.28;;;15.29;79.83
68580;BME280;55555;52.136;5.424;2022-07-24T02:53:30;101920.91;;;15.28;79.59
68580;BME280;55555;52.136;5.424;2022-07-24T02:55:57;101927.38;;;15.27;79.65
68580;BME280;55555;52.136;5.424;2022-07-24T02:58:24;101924.28;;;15.23;80.00
68580;BME280;55555;52.136;5.424;2022-07-24T03:00:51;101919.06;;;15.22;80.08
68580;BME280;55555;52.136;5.424;2022-07-24T03:03:18;101923.22;;;15.24;79.72
68580;BME280;55555;52.136;5.424;2022-07-24T03:05:46;101921.34;;;15.25;79.57
68580;BME280;55555;52.136;5.424;2022-07-24T03:08:13;101918.88;;;15.17;80.27
68580;BME280;55555;52.136;5.424;2022-07-24T03:10:40;101922.44;;;15.17;80.22
68580;BME280;55555;52.136;5.424;2022-07-24T03:13:07;101911.78;;;15.16;80.34
68580;BME280;55555;52.136;5.424;2022-07-24T03:15:34;101907.63;;;15.13;80.24
68580;BME280;55555;52.136;5.424;2022-07-24T03:18:01;101907.41;;;15.15;80.22
68580;BME280;55555;52.136;5.424;2022-07-24T03:20:28;101904.72;;;15.08;80.29
68580;BME280;55555;52.136;5.424;2022-07-24T03:22:56;101903.47;;;15.11;80.08
68580;BME280;55555;52.136;5.424;2022-07-24T03:25:24;101906.78;;;15.13;79.76
68580;BME280;55555;52.136;5.424;2022-07-24T03:27:51;101899.91;;;15.10;79.90
68580;BME280;55555;52.136;5.424;2022-07-24T03:30:19;101904.38;;;15.05;80.50
68580;BME280;55555;52.136;5.424;2022-07-24T03:32:46;101898.31;;;15.03;80.30
68580;BME280;55555;52.136;5.424;2022-07-24T03:35:13;101900.00;;;15.04;80.17
68580;BME280;55555;52.136;5.424;2022-07-24T03:37:40;101894.78;;;15.02;80.47
68580;BME280;55555;52.136;5.424;2022-07-24T03:40:08;101888.53;;;15.02;80.49
68580;BME280;55555;52.136;5.424;2022-07-24T03:42:35;101889.19;;;14.97;80.52
68580;BME280;55555;52.136;5.424;2022-07-24T03:45:03;101892.28;;;15.01;80.70
68580;BME280;55555;52.136;5.424;2022-07-24T03:47:31;101892.72;;;14.98;80.74
68580;BME280;55555;52.136;5.424;2022-07-24T03:49:58;101899.19;;;14.97;80.67
68580;BME280;55555;52.136;5.424;2022-07-24T03:52:25;101901.91;;;14.97;80.89
68580;BME280;55555;52.136;5.424;2022-07-24T03:54:52;101896.69;;;14.95;81.06
68580;BME280;55555;52.136;5.424;2022-07-24T03:57:19;101902.75;;;14.97;80.98
68580;BME280;55555;52.136;5.424;2022-07-24T03:59:46;101902.75;;;14.97;80.83
68580;BME280;55555;52.136;5.424;2022-07-24T04:02:13;101900.88;;;14.98;80.94
68580;BME280;55555;52.136;5.424;2022-07-24T04:04:40;101898.59;;;14.95;81.10
68580;BME280;55555;52.136;5.424;2022-07-24T04:07:07;101900.47;;;14.94;80.93
68580;BME280;55555;52.136;5.424;2022-07-24T04:09:34;101895.66;;;14.96;80.78
68580;BME280;55555;52.136;5.424;2022-07-24T04:12:01;101894.81;;;14.96;80.53
68580;BME280;55555;52.136;5.424;2022-07-24T04:14:28;101897.97;;;14.93;80.83
68580;BME280;55555;52.136;5.424;2022-07-24T04:16:55;101897.53;;;14.96;80.59
68580;BME280;55555;52.136;5.424;2022-07-24T04:19:23;101897.31;;;14.97;80.23
68580;BME280;55555;52.136;5.424;2022-07-24T04:21:50;101902.13;;;14.95;80.65
68580;BME280;55555;52.136;5.424;2022-07-24T04:24:17;101888.16;;;14.92;80.90
68580;BME280;55555;52.136;5.424;2022-07-24T04:26:44;101894.22;;;14.94;80.38
68580;BME280;55555;52.136;5.424;2022-07-24T04:29:11;101892.75;;;14.91;80.71
68580;BME280;55555;52.136;5.424;2022-07-24T04:31:38;101898.41;;;14.89;81.16
68580;BME280;55555;52.136;5.424;2022-07-24T04:34:05;101904.44;;;14.92;80.88
68580;BME280;55555;52.136;5.424;2022-07-24T04:36:32;101915.31;;;14.92;81.17
68580;BME280;55555;52.136;5.424;2022-07-24T04:38:59;101916.97;;;14.93;81.41
68580;BME280;55555;52.136;5.424;2022-07-24T04:41:33;101919.47;;;14.94;81.52
68580;BME280;55555;52.136;5.424;2022-07-24T04:44:00;101913.81;;;14.96;81.79
68580;BME280;55555;52.136;5.424;2022-07-24T04:46:28;101911.91;;;15.03;81.28
68580;BME280;55555;52.136;5.424;2022-07-24T04:48:55;101900.00;;;15.04;81.60
68580;BME280;55555;52.136;5.424;2022-07-24T04:51:22;101898.47;;;15.08;81.57
68580;BME280;55555;52.136;5.424;2022-07-24T04:53:49;101900.97;;;15.09;81.66
68580;BME280;55555;52.136;5.424;2022-07-24T04:56:19;101903.66;;;15.16;81.39
68580;BME280;55555;52.136;5.424;2022-07-24T04:58:47;101904.69;;;15.15;82.12
68580;BME280;55555;52.136;5.424;2022-07-24T05:01:15;101898.59;;;15.19;81.43
68580;BME280;55555;52.136;5.424;2022-07-24T05:03:42;101899.63;;;15.25;81.32
68580;BME280;55555;52.136;5.424;2022-07-24T05:06:09;101898.72;;;15.31;77.83
68580;BME280;55555;52.136;5.424;2022-07-24T05:08:36;101899.97;;;15.35;80.38
68580;BME280;55555;52.136;5.424;2022-07-24T05:11:03;101897.41;;;15.40;81.63
68580;BME280;55555;52.136;5.424;2022-07-24T05:13:30;101900.06;;;15.47;78.27
68580;BME280;55555;52.136;5.424;2022-07-24T05:15:57;101894.81;;;15.52;79.87
68580;BME280;55555;52.136;5.424;2022-07-24T05:18:24;101894.78;;;15.59;79.11
68580;BME280;55555;52.136;5.424;2022-07-24T05:20:51;101895.75;;;15.64;79.78
68580;BME280;55555;52.136;5.424;2022-07-24T05:23:18;101891.31;;;15.70;80.29
68580;BME280;55555;52.136;5.424;2022-07-24T05:25:45;101897.97;;;15.74;78.12
68580;BME280;55555;52.136;5.424;2022-07-24T05:28:15;101896.69;;;15.76;76.83
68580;BME280;55555;52.136;5.424;2022-07-24T05:30:42;101910.22;;;15.83;78.62
68580;BME280;55555;52.136;5.424;2022-07-24T05:33:09;101906.16;;;15.92;78.84
68580;BME280;55555;52.136;5.424;2022-07-24T05:35:36;101914.84;;;16.01;79.58
68580;BME280;55555;52.136;5.424;2022-07-24T05:38:03;101915.41;;;16.09;79.81
68580;BME280;55555;52.136;5.424;2022-07-24T05:40:30;101909.25;;;16.14;78.86
68580;BME280;55555;52.136;5.424;2022-07-24T05:42:57;101907.06;;;16.22;79.99
68580;BME280;55555;52.136;5.424;2022-07-24T05:45:24;101905.72;;;16.32;78.21
68580;BME280;55555;52.136;5.424;2022-07-24T05:47:51;101903.16;;;16.37;76.06
68580;BME280;55555;52.136;5.424;2022-07-24T05:50:19;101905.56;;;16.45;77.95
68580;BME280;55555;52.136;5.424;2022-07-24T05:52:46;101905.03;;;16.54;79.63
68580;BME280;55555;52.136;5.424;2022-07-24T05:55:13;101907.06;;;16.59;76.99
68580;BME280;55555;52.136;5.424;2022-07-24T05:57:42;101907.34;;;16.69;77.48
68580;BME280;55555;52.136;5.424;2022-07-24T06:00:10;101904.22;;;16.84;80.50
68580;BME280;55555;52.136;5.424;2022-07-24T06:02:43;101908.19;;;17.00;79.99
68580;BME280;55555;52.136;5.424;2022-07-24T06:05:12;101916.72;;;17.45;80.06
68580;BME280;55555;52.136;5.424;2022-07-24T06:07:42;101921.63;;;17.78;79.53
68580;BME280;55555;52.136;5.424;2022-07-24T06:10:11;101925.97;;;18.26;78.66
68580;BME280;55555;52.136;5.424;2022-07-24T06:12:41;101922.81;;;18.69;77.78
68580;BME280;55555;52.136;5.424;2022-07-24T06:15:10;101919.91;;;19.04;76.18
68580;BME280;55555;52.136;5.424;2022-07-24T06:17:37;101920.44;;;19.34;75.25
68580;BME280;55555;52.136;5.424;2022-07-24T06:20:05;101915.13;;;19.73;73.99
68580;BME280;55555;52.136;5.424;2022-07-24T06:22:33;101917.13;;;19.99;72.27
68580;BME280;55555;52.136;5.424;2022-07-24T06:25:00;101915.78;;;20.40;71.84
68580;BME280;55555;52.136;5.424;2022-07-24T06:27:27;101907.50;;;20.79;70.13
68580;BME280;55555;52.136;5.424;2022-07-24T06:29:54;101910.69;;;20.98;69.54
68580;BME280;55555;52.136;5.424;2022-07-24T06:32:22;101896.38;;;21.50;68.69
68580;BME280;55555;52.136;5.424;2022-07-24T06:34:50;101903.09;;;21.69;67.01
68580;BME280;55555;52.136;5.424;2022-07-24T06:37:17;101906.50;;;21.86;65.58
68580;BME280;55555;52.136;5.424;2022-07-24T06:39:46;101903.38;;;22.09;64.87
68580;BME280;55555;52.136;5.424;2022-07-24T06:42:13;101903.22;;;22.36;63.41
68580;BME280;55555;52.136;5.424;2022-07-24T06:44:40;101897.63;;;22.78;61.61
68580;BME280;55555;52.136;5.424;2022-07-24T06:47:07;101896.22;;;22.76;62.74
68580;BME280;55555;52.136;5.424;2022-07-24T06:49:34;101894.41;;;23.27;63.28
68580;BME280;55555;52.136;5.424;2022-07-24T06:52:00;101893.84;;;23.56;60.67
68580;BME280;55555;52.136;5.424;2022-07-24T06:54:28;101899.91;;;23.58;60.29
68580;BME280;55555;52.136;5.424;2022-07-24T06:56:55;101903.19;;;23.85;59.78
68580;BME280;55555;52.136;5.424;2022-07-24T06:59:22;101900.44;;;23.50;59.94
68580;BME280;55555;52.136;5.424;2022-07-24T07:01:49;101904.84;;;23.86;57.90
68580;BME280;55555;52.136;5.424;2022-07-24T07:04:17;101897.88;;;24.04;57.97
68580;BME280;55555;52.136;5.424;2022-07-24T07:06:44;101904.19;;;24.30;56.92
68580;BME280;55555;52.136;5.424;2022-07-24T07:09:11;101897.00;;;24.29;56.13
68580;BME280;55555;52.136;5.424;2022-07-24T07:11:38;101909.63;;;24.94;55.30
68580;BME280;55555;52.136;5.424;2022-07-24T07:14:05;101905.31;;;24.78;54.38
68580;BME280;55555;52.136;5.424;2022-07-24T07:16:32;101906.34;;;25.31;54.30
68580;BME280;55555;52.136;5.424;2022-07-24T07:19:00;101910.19;;;25.64;53.13
68580;BME280;55555;52.136;5.424;2022-07-24T07:21:28;101906.88;;;25.33;53.76
68580;BME280;55555;52.136;5.424;2022-07-24T07:23:55;101908.06;;;25.51;52.80
68580;BME280;55555;52.136;5.424;2022-07-24T07:26:22;101910.31;;;25.15;53.12
68580;BME280;55555;52.136;5.424;2022-07-24T07:28:49;101913.06;;;25.49;52.63
68580;BME280;55555;52.136;5.424;2022-07-24T07:31:16;101902.03;;;25.83;52.80
68580;BME280;55555;52.136;5.424;2022-07-24T07:33:44;101922.78;;;26.28;53.00
68580;BME280;55555;52.136;5.424;2022-07-24T07:36:11;101913.25;;;25.92;52.51
68580;BME280;55555;52.136;5.424;2022-07-24T07:38:38;101903.03;;;26.40;50.91
68580;BME280;55555;52.136;5.424;2022-07-24T07:41:05;101901.28;;;26.49;50.05
68580;BME280;55555;52.136;5.424;2022-07-24T07:43:36;101896.03;;;26.66;49.45
68580;BME280;55555;52.136;5.424;2022-07-24T07:46:04;101898.00;;;26.85;50.10
68580;BME280;55555;52.136;5.424;2022-07-24T07:48:31;101896.56;;;26.87;50.61
68580;BME280;55555;52.136;5.424;2022-07-24T07:50:59;101896.63;;;27.39;49.56
68580;BME280;55555;52.136;5.424;2022-07-24T07:53:26;101893.88;;;26.45;53.22
68580;BME280;55555;52.136;5.424;2022-07-24T07:55:53;101895.34;;;27.31;48.95
68580;BME280;55555;52.136;5.424;2022-07-24T07:58:20;101903.66;;;26.75;49.63
68580;BME280;55555;52.136;5.424;2022-07-24T08:00:49;101899.84;;;28.06;48.89
68580;BME280;55555;52.136;5.424;2022-07-24T08:03:16;101912.91;;;27.73;47.18
68580;BME280;55555;52.136;5.424;2022-07-24T08:05:48;101911.84;;;27.55;46.82
68580;BME280;55555;52.136;5.424;2022-07-24T08:08:23;101911.78;;;27.41;47.07
68580;BME280;55555;52.136;5.424;2022-07-24T08:10:50;101910.47;;;27.20;48.60
68580;BME280;55555;52.136;5.424;2022-07-24T08:13:17;101905.22;;;27.37;47.43
68580;BME280;55555;52.136;5.424;2022-07-24T08:15:45;101894.75;;;27.34;46.59
68580;BME280;55555;52.136;5.424;2022-07-24T08:18:12;101898.72;;;27.28;47.77
68580;BME280;55555;52.136;5.424;2022-07-24T08:20:39;101897.59;;;27.61;46.73
68580;BME280;55555;52.136;5.424;2022-07-24T08:23:06;101893.66;;;27.95;45.37
68580;BME280;55555;52.136;5.424;2022-07-24T08:25:33;101899.63;;;27.88;45.42
68580;BME280;55555;52.136;5.424;2022-07-24T08:28:00;101894.97;;;27.38;46.15
68580;BME280;55555;52.136;5.424;2022-07-24T08:30:27;101891.00;;;28.04;45.46
68580;BME280;55555;52.136;5.424;2022-07-24T08:32:54;101891.84;;;28.04;46.96
68580;BME280;55555;52.136;5.424;2022-07-24T08:35:21;101889.78;;;27.96;46.52
68580;BME280;55555;52.136;5.424;2022-07-24T08:37:57;101886.94;;;28.64;44.64
68580;BME280;55555;52.136;5.424;2022-07-24T08:40:25;101883.69;;;28.98;44.25
68580;BME280;55555;52.136;5.424;2022-07-24T08:42:52;101887.31;;;28.36;45.13
68580;BME280;55555;52.136;5.424;2022-07-24T08:45:19;101878.69;;;28.37;44.45
68580;BME280;55555;52.136;5.424;2022-07-24T08:47:46;101883.75;;;29.07;43.55
68580;BME280;55555;52.136;5.424;2022-07-24T08:50:13;101880.13;;;28.84;43.33
68580;BME280;55555;52.136;5.424;2022-07-24T08:52:41;101883.69;;;29.21;43.71
68580;BME280;55555;52.136;5.424;2022-07-24T08:55:11;101879.84;;;29.30;41.71
68580;BME280;55555;52.136;5.424;2022-07-24T08:57:39;101871.06;;;29.59;40.63
68580;BME280;55555;52.136;5.424;2022-07-24T09:00:06;101873.59;;;29.47;42.14
68580;BME280;55555;52.136;5.424;2022-07-24T09:02:37;101869.25;;;29.63;41.66
68580;BME280;55555;52.136;5.424;2022-07-24T09:05:05;101874.56;;;29.43;41.43
68580;BME280;55555;52.136;5.424;2022-07-24T09:07:32;101873.22;;;29.71;41.83
68580;BME280;55555;52.136;5.424;2022-07-24T09:12:38;101875.06;;;29.45;42.87
68580;BME280;55555;52.136;5.424;2022-07-24T09:15:21;101875.91;;;29.31;42.21
68580;BME280;55555;52.136;5.424;2022-07-24T09:17:51;101876.84;;;30.03;41.89
68580;BME280;55555;52.136;5.424;2022-07-24T09:20:25;101872.50;;;30.36;41.84
68580;BME280;55555;52.136;5.424;2022-07-24T09:22:58;101863.47;;;29.82;41.98
68580;BME280;55555;52.136;5.424;2022-07-24T09:25:33;101866.03;;;30.01;41.31
68580;BME280;55555;52.136;5.424;2022-07-24T09:28:03;101861.97;;;30.16;39.63
68580;BME280;55555;52.136;5.424;2022-07-24T09:30:41;101860.59;;;30.70;38.86
68580;BME280;55555;52.136;5.424;2022-07-24T09:35:47;101860.69;;;30.22;39.43
68580;BME280;55555;52.136;5.424;2022-07-24T09:38:23;101859.28;;;30.50;39.20
68580;BME280;55555;52.136;5.424;2022-07-24T09:40:53;101861.91;;;31.24;39.35
68580;BME280;55555;52.136;5.424;2022-07-24T09:43:29;101866.50;;;31.03;39.72
68580;BME280;55555;52.136;5.424;2022-07-24T09:46:06;101856.03;;;30.57;39.29
68580;BME280;55555;52.136;5.424;2022-07-24T09:48:39;101862.75;;;31.16;39.48
68580;BME280;55555;52.136;5.424;2022-07-24T09:51:17;101860.41;;;31.36;37.67
68580;BME280;55555;52.136;5.424;2022-07-24T09:53:46;101863.06;;;30.89;37.79
68580;BME280;55555;52.136;5.424;2022-07-24T09:56:19;101864.84;;;31.28;36.97
68580;BME280;55555;52.136;5.424;2022-07-24T10:01:17;101860.63;;;30.96;37.39
68580;BME280;55555;52.136;5.424;2022-07-24T10:03:47;101857.50;;;31.06;37.20
68580;BME280;55555;52.136;5.424;2022-07-24T10:06:19;101864.66;;;30.38;37.93
68580;BME280;55555;52.136;5.424;2022-07-24T10:08:49;101860.13;;;30.94;37.10
68580;BME280;55555;52.136;5.424;2022-07-24T10:11:17;101855.81;;;31.40;34.94
68580;BME280;55555;52.136;5.424;2022-07-24T10:13:45;101865.53;;;31.08;35.78
68580;BME280;55555;52.136;5.424;2022-07-24T10:18:50;101849.13;;;31.23;36.66
68580;BME280;55555;52.136;5.424;2022-07-24T10:21:20;101845.69;;;31.26;37.93
68580;BME280;55555;52.136;5.424;2022-07-24T10:26:50;101835.47;;;31.48;37.42
68580;BME280;55555;52.136;5.424;2022-07-24T10:29:24;101847.97;;;31.24;36.60
68580;BME280;55555;52.136;5.424;2022-07-24T10:31:53;101840.06;;;31.44;37.35
68580;BME280;55555;52.136;5.424;2022-07-24T10:39:58;101831.19;;;31.97;35.36
68580;BME280;55555;52.136;5.424;2022-07-24T10:45:33;101826.13;;;31.90;33.78
68580;BME280;55555;52.136;5.424;2022-07-24T10:56:37;101815.03;;;32.11;37.48
68580;BME280;55555;52.136;5.424;2022-07-24T11:06:54;101814.06;;;32.07;36.22
68580;BME280;55555;52.136;5.424;2022-07-24T11:09:23;101805.91;;;31.64;36.98
68580;BME280;55555;52.136;5.424;2022-07-24T11:14:26;101804.78;;;31.95;34.96
68580;BME280;55555;52.136;5.424;2022-07-24T11:20:11;101799.66;;;31.67;35.08
68580;BME280;55555;52.136;5.424;2022-07-24T11:25:26;101797.56;;;31.93;34.49
68580;BME280;55555;52.136;5.424;2022-07-24T11:27:55;101806.66;;;31.82;36.07
68580;BME280;55555;52.136;5.424;2022-07-24T11:30:45;101801.03;;;32.20;35.81
68580;BME280;55555;52.136;5.424;2022-07-24T11:33:21;101795.09;;;31.71;35.04
68580;BME280;55555;52.136;5.424;2022-07-24T11:35:48;101793.34;;;31.87;34.94
68580;BME280;55555;52.136;5.424;2022-07-24T11:38:16;101793.22;;;32.34;36.17
68580;BME280;55555;52.136;5.424;2022-07-24T11:40:43;101796.00;;;32.34;36.50
68580;BME280;55555;52.136;5.424;2022-07-24T11:43:10;101792.75;;;32.32;35.91
68580;BME280;55555;52.136;5.424;2022-07-24T11:45:38;101784.44;;;31.65;35.69
68580;BME280;55555;52.136;5.424;2022-07-24T11:48:06;101782.09;;;31.75;36.89
68580;BME280;55555;52.136;5.424;2022-07-24T11:50:33;101777.09;;;32.40;36.08
68580;BME280;55555;52.136;5.424;2022-07-24T11:53:05;101778.78;;;31.82;35.65
68580;BME280;55555;52.136;5.424;2022-07-24T11:55:33;101777.63;;;32.12;35.71
68580;BME280;55555;52.136;5.424;2022-07-24T11:58:00;101768.63;;;32.07;38.06
68580;BME280;55555;52.136;5.424;2022-07-24T12:00:47;101768.19;;;32.25;37.15
68580;BME280;55555;52.136;5.424;2022-07-24T12:03:14;101767.59;;;31.90;34.75
68580;BME280;55555;52.136;5.424;2022-07-24T12:05:41;101760.13;;;31.74;37.62
68580;BME280;55555;52.136;5.424;2022-07-24T12:08:21;101767.28;;;31.83;35.79
68580;BME280;55555;52.136;5.424;2022-07-24T12:10:56;101765.59;;;31.70;36.65
68580;BME280;55555;52.136;5.424;2022-07-24T12:13:25;101765.25;;;31.63;36.39
68580;BME280;55555;52.136;5.424;2022-07-24T12:15:53;101765.69;;;31.36;37.74
68580;BME280;55555;52.136;5.424;2022-07-24T12:18:20;101759.22;;;31.61;38.88
68580;BME280;55555;52.136;5.424;2022-07-24T12:20:58;101758.34;;;31.31;37.10
68580;BME280;55555;52.136;5.424;2022-07-24T12:23:26;101753.50;;;31.57;37.12
68580;BME280;55555;52.136;5.424;2022-07-24T12:25:55;101748.91;;;31.53;38.80
68580;BME280;55555;52.136;5.424;2022-07-24T12:28:23;101748.25;;;31.56;37.99
68580;BME280;55555;52.136;5.424;2022-07-24T12:30:51;101747.97;;;31.49;37.13
68580;BME280;55555;52.136;5.424;2022-07-24T12:33:27;101749.53;;;31.20;37.47
68580;BME280;55555;52.136;5.424;2022-07-24T12:35:57;101744.97;;;31.07;37.67
68580;BME280;55555;52.136;5.424;2022-07-24T12:38:36;101737.97;;;31.01;38.64
68580;BME280;55555;52.136;5.424;2022-07-24T12:41:11;101740.94;;;30.79;38.39
68580;BME280;55555;52.136;5.424;2022-07-24T12:44:00;101737.34;;;30.78;39.77
68580;BME280;55555;52.136;5.424;2022-07-24T12:51:56;101717.84;;;30.87;40.34
68580;BME280;55555;52.136;5.424;2022-07-24T12:54:29;101721.78;;;30.86;39.03
68580;BME280;55555;52.136;5.424;2022-07-24T12:56:59;101720.13;;;30.93;38.70
68580;BME280;55555;52.136;5.424;2022-07-24T13:01:58;101706.91;;;30.82;38.23
68580;BME280;55555;52.136;5.424;2022-07-24T13:04:29;101702.78;;;30.88;38.75
68580;BME280;55555;52.136;5.424;2022-07-24T13:06:58;101711.06;;;30.58;39.67
68580;BME280;55555;52.136;5.424;2022-07-24T13:09:28;101698.06;;;30.71;40.33
68580;BME280;55555;52.136;5.424;2022-07-24T13:12:04;101705.16;;;30.60;38.94
68580;BME280;55555;52.136;5.424;2022-07-24T13:14:32;101709.56;;;30.35;39.46
68580;BME280;55555;52.136;5.424;2022-07-24T13:17:07;101697.25;;;29.84;40.53
68580;BME280;55555;52.136;5.424;2022-07-24T13:19:41;101692.53;;;30.45;39.40
68580;BME280;55555;52.136;5.424;2022-07-24T13:22:09;101696.97;;;30.20;40.24
68580;BME280;55555;52.136;5.424;2022-07-24T13:24:37;101692.66;;;29.80;41.62
68580;BME280;55555;52.136;5.424;2022-07-24T13:27:05;101673.41;;;30.26;40.91
68580;BME280;55555;52.136;5.424;2022-07-24T13:29:34;101680.28;;;30.29;40.56
68580;BME280;55555;52.136;5.424;2022-07-24T13:32:02;101680.44;;;30.41;39.88
68580;BME280;55555;52.136;5.424;2022-07-24T13:34:30;101671.13;;;30.37;40.22
68580;BME280;55555;52.136;5.424;2022-07-24T13:36:58;101666.38;;;30.46;40.10
68580;BME280;55555;52.136;5.424;2022-07-24T13:39:25;101663.44;;;30.17;40.84
68580;BME280;55555;52.136;5.424;2022-07-24T13:41:52;101666.38;;;30.46;40.81
68580;BME280;55555;52.136;5.424;2022-07-24T13:44:20;101659.34;;;30.32;41.32
68580;BME280;55555;52.136;5.424;2022-07-24T13:46:46;101657.22;;;30.37;39.76
68580;BME280;55555;52.136;5.424;2022-07-24T13:49:16;101648.34;;;30.52;39.68
68580;BME280;55555;52.136;5.424;2022-07-24T13:51:43;101644.13;;;30.46;41.42